sensor_id;sensor_type;location;lat;lon;timestamp;pressure;altitude;pressure_sealevel;temperature;humidity
53715;BME280;39608;55.630;37.864;2023-04-04T00:02:07;99353.09;;;9.69;63.84
53715;BME280;39608;55.630;37.864;2023-04-04T00:07:10;99341.53;;;9.64;64.08
53715;BME280;39608;55.630;37.864;2023-04-04T00:12:12;99348.25;;;9.66;64.00
53715;BME280;39608;55.630;37.864;2023-04-04T00:17:14;99349.50;;;9.55;64.17
53715;BME280;39608;55.630;37.864;2023-04-04T00:22:17;99345.91;;;9.59;64.32
53715;BME280;39608;55.630;37.864;2023-04-04T00:27:19;99352.22;;;9.55;64.30
53715;BME280;39608;55.630;37.864;2023-04-04T00:32:21;99345.78;;;9.51;64.41
53715;BME280;39608;55.630;37.864;2023-04-04T00:37:25;99344.16;;;9.50;64.36
53715;BME280;39608;55.630;37.864;2023-04-04T00:42:27;99351.84;;;9.42;64.29
53715;BME280;39608;55.630;37.864;2023-04-04T00:47:29;99344.31;;;9.39;64.66
53715;BME280;39608;55.630;37.864;2023-04-04T00:52:33;99349.13;;;9.42;64.48
53715;BME280;39608;55.630;37.864;2023-04-04T00:57:35;99353.50;;;9.38;64.33
53715;BME280;39608;55.630;37.864;2023-04-04T01:02:37;99346.78;;;9.36;64.57
53715;BME280;39608;55.630;37.864;2023-04-04T01:07:41;99345.09;;;9.40;64.64
53715;BME280;39608;55.630;37.864;2023-04-04T01:12:43;99338.94;;;9.34;64.29
53715;BME280;39608;55.630;37.864;2023-04-04T01:17:46;99340.84;;;9.34;64.79
53715;BME280;39608;55.630;37.864;2023-04-04T01:22:50;99339.25;;;9.33;64.60
53715;BME280;39608;55.630;37.864;2023-04-04T01:27:55;99334.41;;;9.30;64.89
53715;BME280;39608;55.630;37.864;2023-04-04T01:33:01;99328.28;;;9.24;65.06
53715;BME280;39608;55.630;37.864;2023-04-04T01:38:13;99321.03;;;9.19;65.22
53715;BME280;39608;55.630;37.864;2023-04-04T01:43:20;99318.44;;;9.09;65.21
53715;BME280;39608;55.630;37.864;2023-04-04T01:48:23;99325.81;;;9.03;65.18
53715;BME280;39608;55.630;37.864;2023-04-04T01:53:25;99329.38;;;8.99;65.07
53715;BME280;39608;55.630;37.864;2023-04-04T01:58:28;99328.34;;;8.95;65.35
53715;BME280;39608;55.630;37.864;2023-04-04T02:03:30;99333.00;;;8.89;65.61
53715;BME280;39608;55.630;37.864;2023-04-04T02:08:32;99337.09;;;8.86;65.45
53715;BME280;39608;55.630;37.864;2023-04-04T02:13:36;99328.69;;;8.88;65.71
53715;BME280;39608;55.630;37.864;2023-04-04T02:18:40;99334.72;;;8.80;65.68
53715;BME280;39608;55.630;37.864;2023-04-04T02:23:42;99337.13;;;8.81;65.81
53715;BME280;39608;55.630;37.864;2023-04-04T02:28:46;99340.66;;;8.82;65.81
53715;BME280;39608;55.630;37.864;2023-04-04T02:33:48;99327.16;;;8.82;65.82
53715;BME280;39608;55.630;37.864;2023-04-04T02:38:50;99329.28;;;8.85;65.55
53715;BME280;39608;55.630;37.864;2023-04-04T02:43:53;99332.22;;;8.88;65.79
53715;BME280;39608;55.630;37.864;2023-04-04T02:48:55;99335.56;;;8.80;65.71
53715;BME280;39608;55.630;37.864;2023-04-04T02:53:57;99334.44;;;8.81;65.33
53715;BME280;39608;55.630;37.864;2023-04-04T02:59:01;99339.59;;;8.83;65.49
53715;BME280;39608;55.630;37.864;2023-04-04T03:04:03;99334.28;;;8.72;66.07
53715;BME280;39608;55.630;37.864;2023-04-04T03:09:05;99342.91;;;8.75;65.60
53715;BME280;39608;55.630;37.864;2023-04-04T03:14:09;99336.41;;;8.76;66.01
53715;BME280;39608;55.630;37.864;2023-04-04T03:19:11;99345.84;;;8.78;65.54
53715;BME280;39608;55.630;37.864;2023-04-04T03:24:13;99345.63;;;8.75;65.83
53715;BME280;39608;55.630;37.864;2023-04-04T03:29:16;99337.44;;;8.80;65.61
53715;BME280;39608;55.630;37.864;2023-04-04T03:34:18;99342.09;;;8.74;65.51
53715;BME280;39608;55.630;37.864;2023-04-04T03:39:21;99340.00;;;8.66;65.85
53715;BME280;39608;55.630;37.864;2023-04-04T03:44:24;99347.50;;;8.74;65.93
53715;BME280;39608;55.630;37.864;2023-04-04T03:49:26;99338.59;;;8.73;65.63
53715;BME280;39608;55.630;37.864;2023-04-04T03:54:29;99341.28;;;8.73;65.56
53715;BME280;39608;55.630;37.864;2023-04-04T03:59:33;99343.66;;;8.80;65.81
53715;BME280;39608;55.630;37.864;2023-04-04T04:04:35;99334.97;;;8.83;65.42
53715;BME280;39608;55.630;37.864;2023-04-04T04:09:37;99334.38;;;8.86;65.38
53715;BME280;39608;55.630;37.864;2023-04-04T04:14:40;99341.63;;;8.91;65.47
53715;BME280;39608;55.630;37.864;2023-04-04T04:19:42;99333.31;;;8.87;65.69
53715;BME280;39608;55.630;37.864;2023-04-04T04:24:44;99335.66;;;8.94;65.61
53715;BME280;39608;55.630;37.864;2023-04-04T04:29:48;99345.84;;;9.02;65.42
53715;BME280;39608;55.630;37.864;2023-04-04T04:34:50;99354.94;;;9.12;65.23
53715;BME280;39608;55.630;37.864;2023-04-04T04:39:52;99352.84;;;9.28;64.69
53715;BME280;39608;55.630;37.864;2023-04-04T04:44:55;99351.63;;;9.39;64.85
53715;BME280;39608;55.630;37.864;2023-04-04T04:49:57;99354.25;;;9.44;64.34
53715;BME280;39608;55.630;37.864;2023-04-04T04:54:59;99358.97;;;9.57;64.19
53715;BME280;39608;55.630;37.864;2023-04-04T05:00:03;99361.16;;;9.74;64.05
53715;BME280;39608;55.630;37.864;2023-04-04T05:05:06;99360.56;;;9.77;63.84
53715;BME280;39608;55.630;37.864;2023-04-04T05:10:08;99367.00;;;9.82;63.71
53715;BME280;39608;55.630;37.864;2023-04-04T05:15:12;99353.81;;;9.94;63.66
53715;BME280;39608;55.630;37.864;2023-04-04T05:20:14;99346.19;;;10.15;63.55
53715;BME280;39608;55.630;37.864;2023-04-04T05:25:16;99337.50;;;10.79;61.97
53715;BME280;39608;55.630;37.864;2023-04-04T05:30:20;99343.44;;;11.09;61.26
53715;BME280;39608;55.630;37.864;2023-04-04T05:35:22;99349.75;;;11.32;60.87
53715;BME280;39608;55.630;37.864;2023-04-04T05:40:24;99337.94;;;12.01;59.07
53715;BME280;39608;55.630;37.864;2023-04-04T05:45:28;99343.09;;;12.65;57.76
53715;BME280;39608;55.630;37.864;2023-04-04T05:50:30;99344.09;;;13.10;55.84
53715;BME280;39608;55.630;37.864;2023-04-04T05:55:32;99351.75;;;13.83;54.69
53715;BME280;39608;55.630;37.864;2023-04-04T06:00:35;99354.34;;;13.97;54.59
53715;BME280;39608;55.630;37.864;2023-04-04T06:05:37;99345.03;;;13.98;53.56
53715;BME280;39608;55.630;37.864;2023-04-04T06:10:39;99347.75;;;13.98;53.36
53715;BME280;39608;55.630;37.864;2023-04-04T06:15:43;99343.53;;;14.27;53.32
53715;BME280;39608;55.630;37.864;2023-04-04T06:20:45;99352.34;;;14.50;52.02
53715;BME280;39608;55.630;37.864;2023-04-04T06:25:47;99356.19;;;14.49;51.30
53715;BME280;39608;55.630;37.864;2023-04-04T06:30:50;99355.91;;;14.15;51.41
53715;BME280;39608;55.630;37.864;2023-04-04T06:35:52;99338.75;;;13.54;52.08
53715;BME280;39608;55.630;37.864;2023-04-04T06:40:54;99340.53;;;13.09;53.19
53715;BME280;39608;55.630;37.864;2023-04-04T06:45:58;99346.09;;;12.95;53.41
53715;BME280;39608;55.630;37.864;2023-04-04T06:51:00;99354.78;;;12.66;53.49
53715;BME280;39608;55.630;37.864;2023-04-04T06:56:02;99343.47;;;12.41;54.29
53715;BME280;39608;55.630;37.864;2023-04-04T07:01:05;99344.84;;;12.30;53.95
53715;BME280;39608;55.630;37.864;2023-04-04T07:06:07;99348.63;;;12.20;54.20
53715;BME280;39608;55.630;37.864;2023-04-04T07:11:09;99346.81;;;12.15;53.42
53715;BME280;39608;55.630;37.864;2023-04-04T07:16:13;99352.63;;;12.23;54.55
53715;BME280;39608;55.630;37.864;2023-04-04T07:21:15;99339.41;;;12.30;54.48
53715;BME280;39608;55.630;37.864;2023-04-04T07:26:18;99351.63;;;12.41;53.79
53715;BME280;39608;55.630;37.864;2023-04-04T07:31:22;99354.19;;;12.69;53.15
53715;BME280;39608;55.630;37.864;2023-04-04T07:36:24;99352.28;;;12.78;52.31
53715;BME280;39608;55.630;37.864;2023-04-04T07:41:28;99356.50;;;12.84;52.71
53715;BME280;39608;55.630;37.864;2023-04-04T07:46:37;99358.13;;;12.94;52.83
53715;BME280;39608;55.630;37.864;2023-04-04T07:51:40;99350.72;;;12.86;52.96
53715;BME280;39608;55.630;37.864;2023-04-04T07:56:42;99363.53;;;12.86;52.41
53715;BME280;39608;55.630;37.864;2023-04-04T08:01:45;99367.88;;;12.95;52.43
53715;BME280;39608;55.630;37.864;2023-04-04T08:06:49;99355.31;;;13.08;51.32
53715;BME280;39608;55.630;37.864;2023-04-04T08:11:52;99369.19;;;13.38;51.34
53715;BME280;39608;55.630;37.864;2023-04-04T08:16:56;99368.03;;;14.62;49.63
53715;BME280;39608;55.630;37.864;2023-04-04T08:21:58;99365.13;;;15.95;46.57
53715;BME280;39608;55.630;37.864;2023-04-04T08:27:01;99362.00;;;16.39;45.33
53715;BME280;39608;55.630;37.864;2023-04-04T08:32:05;99368.81;;;16.33;46.24
53715;BME280;39608;55.630;37.864;2023-04-04T08:37:09;99369.03;;;16.73;45.51
53715;BME280;39608;55.630;37.864;2023-04-04T08:42:12;99360.44;;;17.74;43.81
53715;BME280;39608;55.630;37.864;2023-04-04T08:47:19;99374.25;;;18.75;42.58
53715;BME280;39608;55.630;37.864;2023-04-04T08:52:22;99364.03;;;18.31;42.00
53715;BME280;39608;55.630;37.864;2023-04-04T08:57:27;99363.69;;;17.51;43.04
53715;BME280;39608;55.630;37.864;2023-04-04T09:02:34;99364.38;;;16.86;43.69
53715;BME280;39608;55.630;37.864;2023-04-04T09:07:38;99373.38;;;16.29;42.72
53715;BME280;39608;55.630;37.864;2023-04-04T09:12:42;99380.88;;;15.98;43.43
53715;BME280;39608;55.630;37.864;2023-04-04T09:17:46;99380.28;;;15.93;43.52
53715;BME280;39608;55.630;37.864;2023-04-04T09:22:48;99382.94;;;15.80;43.26
53715;BME280;39608;55.630;37.864;2023-04-04T09:27:51;99395.56;;;15.64;43.86
53715;BME280;39608;55.630;37.864;2023-04-04T09:32:55;99393.47;;;15.61;44.33
53715;BME280;39608;55.630;37.864;2023-04-04T09:37:59;99391.47;;;15.49;43.81
53715;BME280;39608;55.630;37.864;2023-04-04T09:43:03;99387.66;;;15.41;44.12
53715;BME280;39608;55.630;37.864;2023-04-04T09:48:09;99399.25;;;15.38;44.72
53715;BME280;39608;55.630;37.864;2023-04-04T09:53:15;99392.22;;;15.28;43.90
53715;BME280;39608;55.630;37.864;2023-04-04T09:58:23;99399.81;;;15.22;45.10
53715;BME280;39608;55.630;37.864;2023-04-04T10:03:28;99394.53;;;15.47;45.02
53715;BME280;39608;55.630;37.864;2023-04-04T10:08:32;99393.66;;;15.55;45.24
53715;BME280;39608;55.630;37.864;2023-04-04T10:13:36;99406.97;;;15.66;44.72
53715;BME280;39608;55.630;37.864;2023-04-04T10:18:41;99400.66;;;16.16;44.80
53715;BME280;39608;55.630;37.864;2023-04-04T10:23:45;99402.84;;;17.64;41.70
53715;BME280;39608;55.630;37.864;2023-04-04T10:28:47;99399.97;;;18.54;40.00
53715;BME280;39608;55.630;37.864;2023-04-04T10:34:01;99405.88;;;18.85;39.42
53715;BME280;39608;55.630;37.864;2023-04-04T10:39:14;99415.09;;;18.76;39.14
53715;BME280;39608;55.630;37.864;2023-04-04T10:44:23;99406.69;;;18.12;38.60
53715;BME280;39608;55.630;37.864;2023-04-04T10:49:27;99417.81;;;17.67;39.43
53715;BME280;39608;55.630;37.864;2023-04-04T10:54:31;99412.38;;;17.42;40.02
53715;BME280;39608;55.630;37.864;2023-04-04T10:59:54;99422.66;;;17.70;39.78
53715;BME280;39608;55.630;37.864;2023-04-04T11:05:09;99404.13;;;17.54;39.41
53715;BME280;39608;55.630;37.864;2023-04-04T11:10:15;99408.81;;;17.41;38.29
53715;BME280;39608;55.630;37.864;2023-04-04T11:15:22;99402.09;;;17.39;37.98
53715;BME280;39608;55.630;37.864;2023-04-04T11:20:33;99402.34;;;17.46;38.81
53715;BME280;39608;55.630;37.864;2023-04-04T11:25:37;99405.94;;;16.88;38.73
53715;BME280;39608;55.630;37.864;2023-04-04T11:30:42;99408.94;;;16.62;39.32
53715;BME280;39608;55.630;37.864;2023-04-04T11:35:57;99407.75;;;16.51;39.84
53715;BME280;39608;55.630;37.864;2023-04-04T11:41:00;99404.53;;;16.15;40.26
53715;BME280;39608;55.630;37.864;2023-04-04T11:46:05;99407.41;;;16.19;40.63
53715;BME280;39608;55.630;37.864;2023-04-04T11:51:12;99408.88;;;16.16;40.64
53715;BME280;39608;55.630;37.864;2023-04-04T11:56:14;99402.34;;;16.08;40.45
53715;BME280;39608;55.630;37.864;2023-04-04T12:01:17;99413.28;;;16.08;40.65
53715;BME280;39608;55.630;37.864;2023-04-04T12:06:21;99419.22;;;16.11;40.63
53715;BME280;39608;55.630;37.864;2023-04-04T12:11:23;99408.41;;;16.14;40.40
53715;BME280;39608;55.630;37.864;2023-04-04T12:16:28;99408.34;;;16.02;40.44
53715;BME280;39608;55.630;37.864;2023-04-04T12:21:32;99407.13;;;15.90;40.52
53715;BME280;39608;55.630;37.864;2023-04-04T12:26:35;99422.34;;;15.79;40.73
53715;BME280;39608;55.630;37.864;2023-04-04T12:31:40;99416.88;;;15.79;40.93
53715;BME280;39608;55.630;37.864;2023-04-04T12:36:45;99418.63;;;15.75;41.62
53715;BME280;39608;55.630;37.864;2023-04-04T12:41:51;99426.19;;;15.78;41.27
53715;BME280;39608;55.630;37.864;2023-04-04T12:46:55;99430.50;;;15.88;41.15
53715;BME280;39608;55.630;37.864;2023-04-04T12:51:59;99432.63;;;15.82;41.17
53715;BME280;39608;55.630;37.864;2023-04-04T12:57:05;99430.19;;;15.81;41.48
53715;BME280;39608;55.630;37.864;2023-04-04T13:02:10;99438.75;;;16.21;40.59
53715;BME280;39608;55.630;37.864;2023-04-04T13:07:24;99438.03;;;16.67;40.24
53715;BME280;39608;55.630;37.864;2023-04-04T13:12:53;99446.59;;;16.99;40.66
53715;BME280;39608;55.630;37.864;2023-04-04T13:17:56;99449.38;;;16.77;39.62
53715;BME280;39608;55.630;37.864;2023-04-04T13:23:00;99451.06;;;16.70;39.98
53715;BME280;39608;55.630;37.864;2023-04-04T13:28:02;99452.16;;;16.56;39.99
53715;BME280;39608;55.630;37.864;2023-04-04T13:33:04;99455.16;;;16.64;40.18
53715;BME280;39608;55.630;37.864;2023-04-04T13:38:08;99462.72;;;16.79;39.94
53715;BME280;39608;55.630;37.864;2023-04-04T13:43:10;99462.81;;;17.04;39.80
53715;BME280;39608;55.630;37.864;2023-04-04T13:48:15;99467.63;;;17.07;39.96
53715;BME280;39608;55.630;37.864;2023-04-04T13:53:19;99471.59;;;17.09;40.27
53715;BME280;39608;55.630;37.864;2023-04-04T13:58:21;99466.84;;;17.19;40.24
53715;BME280;39608;55.630;37.864;2023-04-04T14:03:23;99462.88;;;17.66;39.09
53715;BME280;39608;55.630;37.864;2023-04-04T14:08:26;99471.31;;;17.48;39.32
53715;BME280;39608;55.630;37.864;2023-04-04T14:13:30;99467.41;;;17.24;39.55
53715;BME280;39608;55.630;37.864;2023-04-04T14:18:32;99462.50;;;17.30;39.32
53715;BME280;39608;55.630;37.864;2023-04-04T14:23:36;99462.63;;;17.58;38.92
53715;BME280;39608;55.630;37.864;2023-04-04T14:28:38;99462.69;;;17.00;39.66
53715;BME280;39608;55.630;37.864;2023-04-04T14:33:40;99471.19;;;16.53;40.28
53715;BME280;39608;55.630;37.864;2023-04-04T14:38:44;99471.53;;;16.30;41.23
53715;BME280;39608;55.630;37.864;2023-04-04T14:43:46;99470.94;;;16.03;40.92
53715;BME280;39608;55.630;37.864;2023-04-04T14:48:48;99476.06;;;15.75;41.05
53715;BME280;39608;55.630;37.864;2023-04-04T14:53:51;99494.63;;;15.61;41.56
53715;BME280;39608;55.630;37.864;2023-04-04T14:58:53;99481.06;;;15.43;41.59
53715;BME280;39608;55.630;37.864;2023-04-04T15:03:56;99492.81;;;15.35;41.61
53715;BME280;39608;55.630;37.864;2023-04-04T15:08:59;99493.16;;;15.25;41.80
53715;BME280;39608;55.630;37.864;2023-04-04T15:14:02;99488.84;;;15.15;42.15
53715;BME280;39608;55.630;37.864;2023-04-04T15:19:04;99490.81;;;15.05;42.54
53715;BME280;39608;55.630;37.864;2023-04-04T15:24:08;99494.03;;;14.99;43.12
53715;BME280;39608;55.630;37.864;2023-04-04T15:29:10;99493.91;;;14.86;43.42
53715;BME280;39608;55.630;37.864;2023-04-04T15:34:14;99482.19;;;14.77;43.35
53715;BME280;39608;55.630;37.864;2023-04-04T15:39:17;99492.13;;;14.73;43.63
53715;BME280;39608;55.630;37.864;2023-04-04T15:44:19;99506.31;;;14.66;43.92
53715;BME280;39608;55.630;37.864;2023-04-04T15:49:21;99496.00;;;14.63;43.64
53715;BME280;39608;55.630;37.864;2023-04-04T15:54:25;99499.56;;;14.64;43.69
53715;BME280;39608;55.630;37.864;2023-04-04T15:59:28;99503.84;;;14.56;44.80
53715;BME280;39608;55.630;37.864;2023-04-04T16:04:31;99508.19;;;14.48;44.46
53715;BME280;39608;55.630;37.864;2023-04-04T16:09:36;99517.69;;;14.51;44.80
53715;BME280;39608;55.630;37.864;2023-04-04T16:14:38;99526.81;;;14.46;45.15
53715;BME280;39608;55.630;37.864;2023-04-04T16:19:40;99534.66;;;14.39;45.61
53715;BME280;39608;55.630;37.864;2023-04-04T16:24:43;99543.31;;;14.24;45.75
53715;BME280;39608;55.630;37.864;2023-04-04T16:29:45;99556.44;;;14.04;47.04
53715;BME280;39608;55.630;37.864;2023-04-04T16:34:47;99557.50;;;13.85;47.77
53715;BME280;39608;55.630;37.864;2023-04-04T16:39:50;99561.47;;;13.79;47.93
53715;BME280;39608;55.630;37.864;2023-04-04T16:44:53;99562.28;;;13.71;48.40
53715;BME280;39608;55.630;37.864;2023-04-04T16:49:55;99572.44;;;13.57;48.82
53715;BME280;39608;55.630;37.864;2023-04-04T16:54:58;99572.09;;;13.49;49.08
53715;BME280;39608;55.630;37.864;2023-04-04T17:00:00;99573.16;;;13.40;49.34
53715;BME280;39608;55.630;37.864;2023-04-04T17:05:05;99566.03;;;13.30;49.70
53715;BME280;39608;55.630;37.864;2023-04-04T17:10:10;99576.84;;;13.35;50.08
53715;BME280;39608;55.630;37.864;2023-04-04T17:15:14;99583.75;;;13.18;50.32
53715;BME280;39608;55.630;37.864;2023-04-04T17:20:16;99574.22;;;13.07;50.43
53715;BME280;39608;55.630;37.864;2023-04-04T17:25:20;99575.31;;;13.06;50.58
53715;BME280;39608;55.630;37.864;2023-04-04T17:30:26;99573.47;;;12.93;50.82
53715;BME280;39608;55.630;37.864;2023-04-04T17:35:28;99581.75;;;12.88;50.89
53715;BME280;39608;55.630;37.864;2023-04-04T17:40:31;99586.69;;;12.86;50.64
53715;BME280;39608;55.630;37.864;2023-04-04T17:45:37;99574.44;;;12.74;50.99
53715;BME280;39608;55.630;37.864;2023-04-04T17:50:39;99577.41;;;12.64;51.04
53715;BME280;39608;55.630;37.864;2023-04-04T17:55:44;99589.47;;;12.72;50.93
53715;BME280;39608;55.630;37.864;2023-04-04T18:00:46;99589.78;;;12.70;50.84
53715;BME280;39608;55.630;37.864;2023-04-04T18:05:48;99591.06;;;12.73;50.76
53715;BME280;39608;55.630;37.864;2023-04-04T18:10:56;99584.41;;;12.79;51.03
53715;BME280;39608;55.630;37.864;2023-04-04T18:15:58;99578.81;;;12.61;51.12
53715;BME280;39608;55.630;37.864;2023-04-04T18:21:02;99590.81;;;12.60;51.32
53715;BME280;39608;55.630;37.864;2023-04-04T18:26:06;99593.84;;;12.59;51.47
53715;BME280;39608;55.630;37.864;2023-04-04T18:31:08;99594.56;;;12.50;51.53
53715;BME280;39608;55.630;37.864;2023-04-04T18:36:11;99590.66;;;12.43;51.73
53715;BME280;39608;55.630;37.864;2023-04-04T18:41:14;99594.69;;;12.45;51.56
53715;BME280;39608;55.630;37.864;2023-04-04T18:46:16;99594.69;;;12.45;51.36
53715;BME280;39608;55.630;37.864;2023-04-04T18:51:18;99588.84;;;12.38;51.58
53715;BME280;39608;55.630;37.864;2023-04-04T18:56:22;99595.09;;;12.39;51.53
53715;BME280;39608;55.630;37.864;2023-04-04T19:01:24;99590.91;;;12.19;51.89
53715;BME280;39608;55.630;37.864;2023-04-04T19:06:26;99595.53;;;12.04;52.43
53715;BME280;39608;55.630;37.864;2023-04-04T19:11:30;99590.28;;;11.94;52.74
53715;BME280;39608;55.630;37.864;2023-04-04T19:16:32;99598.44;;;11.94;52.94
53715;BME280;39608;55.630;37.864;2023-04-04T19:21:34;99593.59;;;11.77;53.60
53715;BME280;39608;55.630;37.864;2023-04-04T19:26:38;99595.09;;;11.83;53.41
53715;BME280;39608;55.630;37.864;2023-04-04T19:31:41;99600.50;;;11.69;53.80
53715;BME280;39608;55.630;37.864;2023-04-04T19:36:44;99603.34;;;11.64;54.00
53715;BME280;39608;55.630;37.864;2023-04-04T19:41:48;99608.06;;;11.58;54.20
53715;BME280;39608;55.630;37.864;2023-04-04T19:46:50;99598.75;;;11.45;54.56
53715;BME280;39608;55.630;37.864;2023-04-04T19:51:54;99617.34;;;11.38;54.77
53715;BME280;39608;55.630;37.864;2023-04-04T19:57:00;99624.09;;;11.41;55.12
53715;BME280;39608;55.630;37.864;2023-04-04T20:02:04;99616.03;;;11.36;54.94
53715;BME280;39608;55.630;37.864;2023-04-04T20:07:09;99616.13;;;11.30;55.41
53715;BME280;39608;55.630;37.864;2023-04-04T20:12:17;99620.13;;;11.33;55.52
53715;BME280;39608;55.630;37.864;2023-04-04T20:17:19;99631.47;;;11.21;55.52
53715;BME280;39608;55.630;37.864;2023-04-04T20:22:21;99623.03;;;11.23;55.35
53715;BME280;39608;55.630;37.864;2023-04-04T20:27:25;99630.22;;;11.13;55.77
53715;BME280;39608;55.630;37.864;2023-04-04T20:32:27;99629.00;;;11.06;55.99
53715;BME280;39608;55.630;37.864;2023-04-04T20:37:29;99634.13;;;11.07;56.15
53715;BME280;39608;55.630;37.864;2023-04-04T20:42:36;99634.66;;;11.09;56.42
53715;BME280;39608;55.630;37.864;2023-04-04T20:47:41;99611.56;;;10.93;56.28
53715;BME280;39608;55.630;37.864;2023-04-04T20:52:44;99631.19;;;11.04;56.46
53715;BME280;39608;55.630;37.864;2023-04-04T20:57:49;99634.19;;;11.02;56.78
53715;BME280;39608;55.630;37.864;2023-04-04T21:02:51;99637.06;;;10.92;56.76
53715;BME280;39608;55.630;37.864;2023-04-04T21:07:54;99630.91;;;10.86;56.79
53715;BME280;39608;55.630;37.864;2023-04-04T21:12:59;99628.13;;;10.91;56.98
53715;BME280;39608;55.630;37.864;2023-04-04T21:18:05;99632.25;;;10.89;56.93
53715;BME280;39608;55.630;37.864;2023-04-04T21:23:17;99635.00;;;10.84;56.82
53715;BME280;39608;55.630;37.864;2023-04-04T21:28:29;99607.53;;;10.71;57.15
53715;BME280;39608;55.630;37.864;2023-04-04T21:33:32;99625.13;;;10.74;57.36
53715;BME280;39608;55.630;37.864;2023-04-04T21:38:34;99636.41;;;10.62;57.80
53715;BME280;39608;55.630;37.864;2023-04-04T21:43:37;99636.97;;;10.59;57.82
53715;BME280;39608;55.630;37.864;2023-04-04T21:48:39;99644.09;;;10.55;58.24
53715;BME280;39608;55.630;37.864;2023-04-04T21:53:41;99644.22;;;10.44;58.62
53715;BME280;39608;55.630;37.864;2023-04-04T21:58:44;99657.28;;;10.42;58.55
53715;BME280;39608;55.630;37.864;2023-04-04T22:03:48;99651.91;;;10.37;58.44
53715;BME280;39608;55.630;37.864;2023-04-04T22:08:50;99655.47;;;10.33;59.06
53715;BME280;39608;55.630;37.864;2023-04-04T22:13:54;99657.91;;;10.34;59.22
53715;BME280;39608;55.630;37.864;2023-04-04T22:19:03;99656.56;;;10.32;58.65
53715;BME280;39608;55.630;37.864;2023-04-04T22:24:06;99657.13;;;10.28;58.82
53715;BME280;39608;55.630;37.864;2023-04-04T22:29:10;99661.44;;;10.30;59.02
53715;BME280;39608;55.630;37.864;2023-04-04T22:34:12;99664.81;;;10.21;58.81
53715;BME280;39608;55.630;37.864;2023-04-04T22:39:14;99659.78;;;10.09;59.12
53715;BME280;39608;55.630;37.864;2023-04-04T22:44:21;99668.69;;;10.10;59.55
53715;BME280;39608;55.630;37.864;2023-04-04T22:49:24;99665.31;;;9.99;59.90
53715;BME280;39608;55.630;37.864;2023-04-04T22:54:26;99665.91;;;9.96;60.04
53715;BME280;39608;55.630;37.864;2023-04-04T22:59:30;99670.19;;;9.97;59.93
53715;BME280;39608;55.630;37.864;2023-04-04T23:04:32;99677.34;;;9.88;59.97
53715;BME280;39608;55.630;37.864;2023-04-04T23:09:34;99683.06;;;9.86;60.28
53715;BME280;39608;55.630;37.864;2023-04-04T23:14:37;99678.44;;;9.87;60.34
53715;BME280;39608;55.630;37.864;2023-04-04T23:19:39;99680.69;;;9.80;60.36
53715;BME280;39608;55.630;37.864;2023-04-04T23:24:41;99684.47;;;9.79;60.30
53715;BME280;39608;55.630;37.864;2023-04-04T23:29:45;99682.06;;;9.77;60.58
53715;BME280;39608;55.630;37.864;2023-04-04T23:34:50;99677.53;;;9.67;60.52
53715;BME280;39608;55.630;37.864;2023-04-04T23:39:52;99684.34;;;9.59;60.79
53715;BME280;39608;55.630;37.864;2023-04-04T23:44:55;99683.81;;;9.63;60.70
53715;BME280;39608;55.630;37.864;2023-04-04T23:49:59;99689.28;;;9.52;61.42
53715;BME280;39608;55.630;37.864;2023-04-04T23:55:01;99696.06;;;9.50;61.03
